createdAt,value
2019-04-16T00:00:59.337Z,64.90
2019-04-16T00:03:27.154Z,65.00
2019-04-16T00:06:00.433Z,65.00
2019-04-16T00:08:37.203Z,65.10
2019-04-16T00:11:15.406Z,65.10
2019-04-16T00:13:50.066Z,65.10
2019-04-16T00:16:17.885Z,65.20
2019-04-16T00:18:56.696Z,65.10
2019-04-16T00:21:29.024Z,65.30
2019-04-16T00:24:19.475Z,65.50
2019-04-16T00:26:49.438Z,65.40
2019-04-16T00:29:17.247Z,65.40
2019-04-16T00:31:49.738Z,65.50
2019-04-16T00:34:18.488Z,65.50
2019-04-16T00:36:48.673Z,65.70
2019-04-16T00:39:18.103Z,65.60
2019-04-16T00:41:45.633Z,65.70
2019-04-16T00:44:13.471Z,65.80
2019-04-16T00:46:41.059Z,65.80
2019-04-16T00:49:08.784Z,65.70
2019-04-16T00:51:36.800Z,65.70
2019-04-16T00:54:04.522Z,66.00
2019-04-16T00:56:32.158Z,65.90
2019-04-16T00:58:59.773Z,66.00
2019-04-16T01:01:27.342Z,66.00
2019-04-16T01:03:55.147Z,66.10
2019-04-16T01:06:22.715Z,66.20
2019-04-16T01:08:54.955Z,66.20
2019-04-16T01:11:19.822Z,66.20
2019-04-16T01:13:47.464Z,66.50
2019-04-16T01:16:14.941Z,66.40
2019-04-16T01:18:43.618Z,66.50
2019-04-16T01:21:13.788Z,66.70
2019-04-16T01:23:40.671Z,66.60
2019-04-16T01:26:08.063Z,66.80
2019-04-16T01:28:39.256Z,66.90
2019-04-16T01:31:33.548Z,67.00
2019-04-16T01:34:23.374Z,66.90
2019-04-16T01:37:03.106Z,67.10
2019-04-16T01:39:31.177Z,67.10
2019-04-16T01:41:58.884Z,67.20
2019-04-16T01:44:29.500Z,67.40
2019-04-16T01:46:56.139Z,67.40
2019-04-16T01:49:23.557Z,67.40
2019-04-16T01:51:51.172Z,67.60
2019-04-16T01:54:22.603Z,68.30
2019-04-16T01:56:48.214Z,68.40
2019-04-16T01:59:15.731Z,68.60
2019-04-16T02:01:44.264Z,68.40
2019-04-16T02:04:12.399Z,68.30
2019-04-16T02:06:39.970Z,68.50
2019-04-16T02:09:07.323Z,68.50
2019-04-16T02:11:35.006Z,68.40
2019-04-16T02:14:02.697Z,68.50
2019-04-16T02:16:30.205Z,68.50
2019-04-16T02:19:00.782Z,68.60
2019-04-16T02:21:26.970Z,68.90
2019-04-16T02:23:54.461Z,68.90
2019-04-16T02:26:23.579Z,68.70
2019-04-16T02:28:51.372Z,68.80
2019-04-16T02:31:18.861Z,68.80
2019-04-16T02:33:46.501Z,69.00
2019-04-16T02:36:14.984Z,69.20
2019-04-16T02:38:52.338Z,69.50
2019-04-16T02:41:12.568Z,69.50
2019-04-16T02:43:41.231Z,69.60
2019-04-16T02:46:09.090Z,70.00
2019-04-16T02:48:36.721Z,69.70
2019-04-16T02:51:16.791Z,70.20
2019-04-16T02:54:06.475Z,70.20
2019-04-16T02:56:55.906Z,70.40
2019-04-16T02:59:26.913Z,70.40
2019-04-16T03:02:11.722Z,70.80
2019-04-16T03:04:46.467Z,70.90
2019-04-16T03:07:14.998Z,71.10
2019-04-16T03:09:42.554Z,71.30
2019-04-16T03:12:10.323Z,71.60
2019-04-16T03:14:37.982Z,71.80
2019-04-16T03:17:23.798Z,71.90
2019-04-16T03:19:52.136Z,72.20
2019-04-16T03:22:20.094Z,72.30
2019-04-16T03:24:47.859Z,72.50
2019-04-16T03:27:15.427Z,72.80
2019-04-16T03:29:43.108Z,72.90
2019-04-16T03:32:14.285Z,73.10
2019-04-16T03:34:39.794Z,73.50
2019-04-16T03:37:07.472Z,73.70
2019-04-16T03:39:35.216Z,74.10
2019-04-16T03:42:02.804Z,74.10
2019-04-16T03:44:30.566Z,74.10
2019-04-16T03:46:58.054Z,74.70
2019-04-16T03:49:27.826Z,75.50
2019-04-16T03:51:55.370Z,74.90
2019-04-16T03:54:23.256Z,75.40
2019-04-16T03:56:51.101Z,75.10
2019-04-16T03:59:18.778Z,75.40
2019-04-16T04:01:46.918Z,75.40
2019-04-16T04:04:14.600Z,75.80
2019-04-16T04:06:42.281Z,76.10
2019-04-16T04:09:11.007Z,76.70
2019-04-16T04:11:41.911Z,77.00
2019-04-16T04:14:09.590Z,77.00
2019-04-16T04:16:38.417Z,77.40
2019-04-16T04:19:06.076Z,77.60
2019-04-16T04:21:33.694Z,78.00
2019-04-16T04:24:01.326Z,78.30
2019-04-16T04:26:29.106Z,78.80
2019-04-16T04:28:56.612Z,79.00
2019-04-16T04:31:24.271Z,79.30
2019-04-16T04:33:51.795Z,79.40
2019-04-16T04:36:22.676Z,79.80
2019-04-16T04:38:48.804Z,80.10
2019-04-16T04:41:20.160Z,80.20
2019-04-16T04:43:47.857Z,80.70
2019-04-16T04:46:15.723Z,81.00
2019-04-16T04:48:44.082Z,81.10
2019-04-16T04:51:12.165Z,82.10
2019-04-16T04:53:41.078Z,82.30
2019-04-16T04:56:08.732Z,82.70
2019-04-16T04:58:36.401Z,82.70
2019-04-16T05:01:04.118Z,82.90
2019-04-16T05:03:48.927Z,82.70
2019-04-16T05:06:19.474Z,83.50
2019-04-16T05:08:47.184Z,84.00
2019-04-16T05:11:15.835Z,84.00
2019-04-16T05:13:44.370Z,83.10
2019-04-16T05:16:14.159Z,84.30
2019-04-16T05:18:42.657Z,84.40
2019-04-16T05:21:10.290Z,84.80
2019-04-16T05:23:37.904Z,84.60
2019-04-16T05:26:05.743Z,85.00
2019-04-16T05:28:54.887Z,85.20
2019-04-16T05:31:25.641Z,85.70
2019-04-16T05:33:52.171Z,85.50
2019-04-16T05:36:40.263Z,85.80
2019-04-16T05:39:08.426Z,86.20
2019-04-16T05:41:36.266Z,86.40
2019-04-16T05:44:04.370Z,86.70
2019-04-16T05:46:32.040Z,86.60
2019-04-16T05:49:00.375Z,86.80
2019-04-16T05:51:31.418Z,87.30
2019-04-16T05:54:02.665Z,87.70
2019-04-16T05:56:35.473Z,87.70
2019-04-16T05:59:03.379Z,87.90
2019-04-16T06:01:35.515Z,87.80
2019-04-16T06:04:03.183Z,88.10
2019-04-16T06:06:31.795Z,87.40
2019-04-16T06:09:00.333Z,87.40
2019-04-16T06:11:35.006Z,87.10
2019-04-16T06:14:16.964Z,86.70
2019-04-16T06:16:56.749Z,86.20
2019-04-16T06:19:46.823Z,85.50
2019-04-16T06:22:29.558Z,85.10
2019-04-16T06:25:13.685Z,84.30
2019-04-16T06:28:01.190Z,83.60
2019-04-16T06:30:55.682Z,82.90
2019-04-16T06:33:40.164Z,82.20
2019-04-16T06:36:21.416Z,80.90
2019-04-16T06:38:58.674Z,80.60
2019-04-16T06:41:48.738Z,80.40
2019-04-16T06:44:20.445Z,79.50
2019-04-16T06:47:11.267Z,79.20
2019-04-16T06:49:53.162Z,78.40
2019-04-16T06:52:58.630Z,77.90
2019-04-16T06:55:42.877Z,77.70
2019-04-16T06:58:18.496Z,77.00
2019-04-16T07:00:57.059Z,77.10
2019-04-16T07:03:59.671Z,76.60
2019-04-16T07:06:37.223Z,76.00
2019-04-16T07:09:26.169Z,75.80
2019-04-16T07:12:06.978Z,75.50
2019-04-16T07:14:36.130Z,74.50
2019-04-16T07:17:04.318Z,73.40
2019-04-16T07:19:31.991Z,72.60
2019-04-16T07:21:59.766Z,71.60
2019-04-16T07:24:30.832Z,71.60
2019-04-16T07:26:57.130Z,71.70
2019-04-16T07:29:34.744Z,70.40
2019-04-16T07:32:37.134Z,70.60
2019-04-16T07:35:22.580Z,70.90
2019-04-16T07:38:06.859Z,70.00
2019-04-16T07:40:52.718Z,69.00
2019-04-16T07:43:45.870Z,68.70
2019-04-16T07:46:34.060Z,67.90
2019-04-16T07:49:23.470Z,67.90
2019-04-16T07:52:15.533Z,67.40
2019-04-16T07:54:58.599Z,67.30
2019-04-16T07:57:26.216Z,65.50
2019-04-16T07:59:54.085Z,65.10
2019-04-16T08:02:22.413Z,63.90
2019-04-16T08:04:50.079Z,63.50
2019-04-16T08:07:20.447Z,63.40
2019-04-16T08:09:47.450Z,62.90
2019-04-16T08:12:29.406Z,62.70
2019-04-16T08:14:45.799Z,62.00
2019-04-16T08:17:14.249Z,61.60
2019-04-16T08:19:47.779Z,61.60
2019-04-16T08:22:15.374Z,61.40
2019-04-16T08:24:44.085Z,61.70
2019-04-16T08:27:17.980Z,62.10
2019-04-16T08:29:42.282Z,60.70
2019-04-16T08:32:12.877Z,60.40
2019-04-16T08:34:39.439Z,59.50
2019-04-16T08:37:08.294Z,59.20
2019-04-16T08:39:36.934Z,59.30
2019-04-16T08:42:05.724Z,59.00
2019-04-16T08:44:35.819Z,58.80
2019-04-16T08:47:03.007Z,59.10
2019-04-16T08:49:30.657Z,59.50
2019-04-16T08:51:59.335Z,59.50
2019-04-16T08:54:26.971Z,58.60
2019-04-16T08:56:54.635Z,58.10
2019-04-16T08:59:22.103Z,58.00
2019-04-16T09:01:51.461Z,57.40
2019-04-16T09:04:21.350Z,56.90
2019-04-16T09:06:49.071Z,57.20
2019-04-16T09:09:43.075Z,56.90
2019-04-16T09:12:10.764Z,56.70
2019-04-16T09:14:42.570Z,57.00
2019-04-16T09:17:17.255Z,57.00
2019-04-16T09:19:50.750Z,56.40
2019-04-16T09:22:18.343Z,55.80
2019-04-16T09:24:55.575Z,54.90
2019-04-16T09:27:48.450Z,54.10
2019-04-16T09:30:34.610Z,54.20
2019-04-16T09:33:12.278Z,53.60
2019-04-16T09:35:59.340Z,53.70
2019-04-16T09:38:38.465Z,53.30
2019-04-16T09:41:27.405Z,52.60
2019-04-16T09:43:57.982Z,52.60
2019-04-16T09:46:49.205Z,52.50
2019-04-16T09:48:55.548Z,51.90
2019-04-16T09:51:25.368Z,51.50
2019-04-16T09:53:52.571Z,51.10
2019-04-16T09:56:29.096Z,50.80
2019-04-16T09:58:58.421Z,50.70
2019-04-16T10:01:30.433Z,50.30
2019-04-16T10:03:57.981Z,49.80
2019-04-16T10:06:25.611Z,50.50
2019-04-16T10:08:56.456Z,50.20
2019-04-16T10:11:23.009Z,50.50
2019-04-16T10:13:50.838Z,49.40
2019-04-16T10:16:37.810Z,49.50
2019-04-16T10:19:08.384Z,49.80
2019-04-16T10:21:34.953Z,49.70
2019-04-16T10:24:40.609Z,49.70
2019-04-16T10:27:10.348Z,49.30
2019-04-16T10:29:38.024Z,49.10
2019-04-16T10:32:05.559Z,49.00
2019-04-16T10:34:36.200Z,49.40
2019-04-16T10:37:02.625Z,48.10
2019-04-16T10:39:52.970Z,47.80
2019-04-16T10:42:35.008Z,46.50
2019-04-16T10:45:20.934Z,45.20
2019-04-16T10:48:08.164Z,45.80
2019-04-16T10:50:44.514Z,46.00
2019-04-16T10:53:28.389Z,45.80
2019-04-16T10:56:12.849Z,45.90
2019-04-16T10:58:57.069Z,45.80
2019-04-16T11:01:41.375Z,45.60
2019-04-16T11:04:14.670Z,45.00
2019-04-16T11:06:44.550Z,44.60
2019-04-16T11:09:12.500Z,43.40
2019-04-16T11:11:40.518Z,42.90
2019-04-16T11:14:08.293Z,42.20
2019-04-16T11:16:37.372Z,42.10
2019-04-16T11:19:04.897Z,42.60
2019-04-16T11:21:32.609Z,42.80
2019-04-16T11:24:00.187Z,42.20
2019-04-16T11:26:27.751Z,41.80
2019-04-16T11:28:55.432Z,41.10
2019-04-16T11:31:23.988Z,41.10
2019-04-16T11:33:51.707Z,41.80
2019-04-16T11:36:21.014Z,41.80
2019-04-16T11:38:48.807Z,41.80
2019-04-16T11:41:18.011Z,41.20
2019-04-16T11:43:45.601Z,40.80
2019-04-16T11:46:13.240Z,39.90
2019-04-16T11:48:42.120Z,40.30
2019-04-16T11:51:10.748Z,38.70
2019-04-16T11:53:38.268Z,39.00
2019-04-16T11:56:06.045Z,39.60
2019-04-16T11:58:51.407Z,38.60
2019-04-16T12:01:38.493Z,39.50
2019-04-16T12:04:25.515Z,38.90
2019-04-16T12:07:15.333Z,38.70
2019-04-16T12:10:01.143Z,38.90
2019-04-16T12:12:38.196Z,39.40
2019-04-16T12:15:25.285Z,39.00
2019-04-16T12:18:05.672Z,38.80
2019-04-16T12:20:45.140Z,38.00
2019-04-16T12:23:23.183Z,37.90
2019-04-16T12:26:10.915Z,37.40
2019-04-16T12:28:49.294Z,37.70
2019-04-16T12:31:25.262Z,36.40
2019-04-16T12:34:24.631Z,36.40
2019-04-16T12:37:10.450Z,36.80
2019-04-16T12:39:47.761Z,37.00
2019-04-16T12:42:22.349Z,36.60
2019-04-16T12:44:59.120Z,36.30
2019-04-16T12:47:48.967Z,36.40
2019-04-16T12:50:34.823Z,35.80
2019-04-16T12:53:17.642Z,35.90
2019-04-16T12:56:07.422Z,36.10
2019-04-16T12:58:50.364Z,36.30
2019-04-16T13:01:27.909Z,36.60
2019-04-16T13:04:02.372Z,36.40
2019-04-16T13:06:53.644Z,36.00
2019-04-16T13:09:49.566Z,36.00
2019-04-16T13:12:46.023Z,35.70
2019-04-16T13:15:35.882Z,35.90
2019-04-16T13:18:13.426Z,35.60
2019-04-16T13:21:03.950Z,35.70
2019-04-16T13:23:43.693Z,35.60
2019-04-16T13:26:32.842Z,35.30
2019-04-16T13:29:03.063Z,34.20
2019-04-16T13:31:30.573Z,34.80
2019-04-16T13:33:58.176Z,35.00
2019-04-16T13:36:27.811Z,35.20
2019-04-16T13:39:01.977Z,35.40
2019-04-16T13:41:31.429Z,35.40
2019-04-16T13:44:07.981Z,35.60
2019-04-16T13:46:34.724Z,35.10
2019-04-16T13:49:36.886Z,35.00
2019-04-16T13:52:04.438Z,34.30
2019-04-16T13:54:49.919Z,34.90
2019-04-16T13:57:19.355Z,34.90
2019-04-16T14:00:02.986Z,34.90
2019-04-16T14:02:34.011Z,34.70
2019-04-16T14:05:04.583Z,34.10
2019-04-16T14:07:30.853Z,34.10
2019-04-16T14:09:58.422Z,34.70
2019-04-16T14:12:41.159Z,35.30
2019-04-16T14:14:56.535Z,35.40
2019-04-16T14:17:25.586Z,35.70
2019-04-16T14:19:53.235Z,35.70
2019-04-16T14:22:21.877Z,35.50
2019-04-16T14:24:51.303Z,35.30
2019-04-16T14:27:18.920Z,34.90
2019-04-16T14:29:46.511Z,35.00
2019-04-16T14:32:14.894Z,34.60
2019-04-16T14:34:48.853Z,35.00
2019-04-16T14:37:16.549Z,35.40
2019-04-16T14:39:47.714Z,35.40
2019-04-16T14:42:15.751Z,35.00
2019-04-16T14:44:47.071Z,35.00
2019-04-16T14:47:16.656Z,35.40
2019-04-16T14:49:44.283Z,35.00
2019-04-16T14:52:12.286Z,35.20
2019-04-16T14:55:02.859Z,35.20
2019-04-16T14:57:30.583Z,35.40
2019-04-16T15:00:23.185Z,35.10
2019-04-16T15:03:16.264Z,34.70
2019-04-16T15:06:00.543Z,34.70
2019-04-16T15:08:36.988Z,34.10
2019-04-16T15:11:25.253Z,34.40
2019-04-16T15:13:57.192Z,34.70
2019-04-16T15:16:59.764Z,34.90
2019-04-16T15:19:42.748Z,35.10
2019-04-16T15:22:44.989Z,35.10
2019-04-16T15:25:34.794Z,35.00
2019-04-16T15:28:27.979Z,35.20
2019-04-16T15:31:08.881Z,35.40
2019-04-16T15:33:52.422Z,35.60
2019-04-16T15:36:32.403Z,35.60
2019-04-16T15:39:05.539Z,35.70
2019-04-16T15:41:52.977Z,35.70
2019-04-16T15:44:41.638Z,35.30
2019-04-16T15:47:35.898Z,35.10
2019-04-16T15:50:07.795Z,35.40
2019-04-16T15:52:46.298Z,35.50
2019-04-16T15:55:25.063Z,35.70
2019-04-16T15:58:15.214Z,35.70
2019-04-16T16:00:47.261Z,35.40
2019-04-16T16:03:34.470Z,35.70
2019-04-16T16:06:21.739Z,35.70
2019-04-16T16:09:08.824Z,36.00
2019-04-16T16:11:44.530Z,35.70
2019-04-16T16:14:12.193Z,34.60
2019-04-16T16:16:41.897Z,34.80
2019-04-16T16:19:12.063Z,34.90
2019-04-16T16:21:38.952Z,35.00
2019-04-16T16:24:07.982Z,35.10
2019-04-16T16:26:35.930Z,34.60
2019-04-16T16:29:03.473Z,34.50
2019-04-16T16:31:35.346Z,34.50
2019-04-16T16:34:00.609Z,34.10
2019-04-16T16:36:28.216Z,33.80
2019-04-16T16:38:55.964Z,33.80
2019-04-16T16:41:23.350Z,33.70
2019-04-16T16:43:50.922Z,34.20
2019-04-16T16:46:34.880Z,34.50
2019-04-16T16:49:02.499Z,34.90
2019-04-16T16:51:30.054Z,35.20
2019-04-16T16:54:10.649Z,35.80
2019-04-16T16:56:44.135Z,34.80
2019-04-16T16:59:30.108Z,33.60
2019-04-16T17:02:24.337Z,32.80
2019-04-16T17:04:52.611Z,32.80
2019-04-16T17:07:20.171Z,31.70
2019-04-16T17:09:47.886Z,30.60
2019-04-16T17:12:16.530Z,30.10
2019-04-16T17:14:44.165Z,29.30
2019-04-16T17:17:14.905Z,29.30
2019-04-16T17:19:41.984Z,29.00
2019-04-16T17:22:10.528Z,28.50
2019-04-16T17:24:38.139Z,28.00
2019-04-16T17:27:06.034Z,25.30
2019-04-16T17:29:33.914Z,25.60
2019-04-16T17:32:01.509Z,26.00
2019-04-16T17:34:29.306Z,26.40
2019-04-16T17:36:56.886Z,26.60
2019-04-16T17:39:42.308Z,26.40
2019-04-16T17:42:06.905Z,26.60
2019-04-16T17:45:10.704Z,27.20
2019-04-16T17:48:10.100Z,27.60
2019-04-16T17:51:03.451Z,28.10
2019-04-16T17:53:41.529Z,28.60
2019-04-16T17:56:30.494Z,29.10
2019-04-16T17:59:00.651Z,29.40
2019-04-16T18:01:49.091Z,29.80
2019-04-16T18:04:44.779Z,29.90
2019-04-16T18:07:46.731Z,30.10
2019-04-16T18:10:26.935Z,30.60
2019-04-16T18:13:07.265Z,31.10
2019-04-16T18:15:43.325Z,31.50
2019-04-16T18:18:16.943Z,31.90
2019-04-16T18:21:05.590Z,32.30
2019-04-16T18:23:47.136Z,32.60
2019-04-16T18:26:49.615Z,33.00
2019-04-16T18:29:32.659Z,33.30
2019-04-16T18:32:21.900Z,33.70
2019-04-16T18:35:16.461Z,34.00
2019-04-16T18:38:10.319Z,34.30
2019-04-16T18:40:48.215Z,35.60
2019-04-16T18:43:34.352Z,35.60
2019-04-16T18:46:20.023Z,36.60
2019-04-16T18:48:48.942Z,36.30
2019-04-16T18:51:16.686Z,36.50
2019-04-16T18:53:45.686Z,36.70
2019-04-16T18:56:13.703Z,36.90
2019-04-16T18:58:43.159Z,37.00
2019-04-16T19:01:14.758Z,37.20
2019-04-16T19:03:42.513Z,37.50
2019-04-16T19:06:10.682Z,37.50
2019-04-16T19:08:41.911Z,37.70
2019-04-16T19:11:07.924Z,37.90
2019-04-16T19:13:35.637Z,38.00
2019-04-16T19:16:07.681Z,38.30
2019-04-16T19:18:35.317Z,38.50
2019-04-16T19:21:03.250Z,38.60
2019-04-16T19:23:30.947Z,39.30
2019-04-16T19:26:00.694Z,39.80
2019-04-16T19:28:28.303Z,39.30
2019-04-16T19:30:55.931Z,39.40
2019-04-16T19:33:27.520Z,39.40
2019-04-16T19:35:56.998Z,39.50
2019-04-16T19:38:24.836Z,39.60
2019-04-16T19:40:53.012Z,39.70
2019-04-16T19:43:22.929Z,39.90
2019-04-16T19:45:51.346Z,39.90
2019-04-16T19:48:34.259Z,40.10
2019-04-16T19:50:51.868Z,40.20
2019-04-16T19:53:23.504Z,40.20
2019-04-16T19:55:51.607Z,40.50
2019-04-16T19:58:23.462Z,40.50
2019-04-16T20:00:53.926Z,41.20
2019-04-16T20:03:22.847Z,41.10
2019-04-16T20:05:50.524Z,41.60
2019-04-16T20:08:18.366Z,41.40
2019-04-16T20:10:48.741Z,41.50
2019-04-16T20:13:15.495Z,41.50
2019-04-16T20:15:44.156Z,41.50
2019-04-16T20:18:12.993Z,41.60
2019-04-16T20:20:40.628Z,41.60
2019-04-16T20:23:08.139Z,41.60
2019-04-16T20:25:35.594Z,41.70
2019-04-16T20:28:03.562Z,41.70
2019-04-16T20:30:31.201Z,41.80
2019-04-16T20:32:59.527Z,41.80
2019-04-16T20:35:27.902Z,42.50
2019-04-16T20:37:55.723Z,41.90
2019-04-16T20:40:23.399Z,41.90
2019-04-16T20:42:51.206Z,42.00
2019-04-16T20:45:18.727Z,41.90
2019-04-16T20:47:46.666Z,41.90
2019-04-16T20:50:14.379Z,42.00
2019-04-16T20:52:41.883Z,41.90
2019-04-16T20:55:15.770Z,41.90
2019-04-16T20:57:40.077Z,42.00
2019-04-16T21:00:10.886Z,42.00
2019-04-16T21:02:39.277Z,42.00
2019-04-16T21:05:21.566Z,42.10
2019-04-16T21:07:36.676Z,42.00
2019-04-16T21:10:05.084Z,42.10
2019-04-16T21:12:32.746Z,42.10
2019-04-16T21:15:01.658Z,42.10
2019-04-16T21:17:29.310Z,42.10
2019-04-16T21:19:57.011Z,42.10
2019-04-16T21:22:24.860Z,42.20
2019-04-16T21:24:53.960Z,42.20
2019-04-16T21:27:21.462Z,42.10
2019-04-16T21:29:48.951Z,42.20
2019-04-16T21:32:54.618Z,42.20
2019-04-16T21:35:28.785Z,42.20
2019-04-16T21:38:27.939Z,42.20
2019-04-16T21:40:56.361Z,42.20
2019-04-16T21:43:24.982Z,42.30
2019-04-16T21:45:52.662Z,42.30
2019-04-16T21:48:20.273Z,42.30
2019-04-16T21:50:48.256Z,42.30
2019-04-16T21:53:16.149Z,42.30
2019-04-16T21:55:43.566Z,42.50
2019-04-16T21:58:14.490Z,42.40
2019-04-16T22:01:15.547Z,42.50
2019-04-16T22:03:45.965Z,42.60
2019-04-16T22:06:13.950Z,42.60
2019-04-16T22:08:41.643Z,42.70
2019-04-16T22:11:11.739Z,42.80
2019-04-16T22:13:38.584Z,42.80
2019-04-16T22:16:06.174Z,42.90
2019-04-16T22:18:34.131Z,42.90
2019-04-16T22:21:01.800Z,43.20
2019-04-16T22:23:29.607Z,43.20
2019-04-16T22:26:01.045Z,43.20
2019-04-16T22:28:26.574Z,43.40
2019-04-16T22:30:54.218Z,43.20
2019-04-16T22:33:22.170Z,43.30
2019-04-16T22:35:49.890Z,43.40
2019-04-16T22:38:17.640Z,43.40
2019-04-16T22:40:54.967Z,43.50
2019-04-16T22:43:50.236Z,43.50
2019-04-16T22:46:21.886Z,43.50
2019-04-16T22:48:59.600Z,43.50
2019-04-16T22:51:27.131Z,43.60
2019-04-16T22:53:54.729Z,43.60
2019-04-16T22:56:29.033Z,43.70
2019-04-16T22:58:56.704Z,43.70
2019-04-16T23:01:25.142Z,43.80
2019-04-16T23:03:53.313Z,43.90
2019-04-16T23:06:22.465Z,44.00
2019-04-16T23:08:49.985Z,44.10
2019-04-16T23:11:17.458Z,44.10
2019-04-16T23:13:45.826Z,44.20
2019-04-16T23:16:13.966Z,45.00
2019-04-16T23:18:41.586Z,44.80
2019-04-16T23:21:10.029Z,44.70
2019-04-16T23:23:38.615Z,44.80
2019-04-16T23:26:06.261Z,45.60
2019-04-16T23:28:33.870Z,45.70
2019-04-16T23:31:01.520Z,45.70
2019-04-16T23:33:32.582Z,45.80
2019-04-16T23:35:58.610Z,45.90
2019-04-16T23:38:31.181Z,45.90
2019-04-16T23:40:55.676Z,46.00
2019-04-16T23:43:46.017Z,46.00
2019-04-16T23:46:26.829Z,46.00
2019-04-16T23:49:11.617Z,46.10
2019-04-16T23:51:50.156Z,46.10
2019-04-16T23:54:22.159Z,46.10
2019-04-16T23:56:53.910Z,46.20
2019-04-16T23:59:41.056Z,46.20
